Time;durP1;ratioP1;P1;durP2;ratioP2;P2;SDS_P1;SDS_P2;PMS_P1;PMS_P2;Temp;Humidity;BMP_temperature;BMP_pressure;BME280_temperature;BME280_humidity;BME280_pressure;Samples;Min_cycle;Max_cycle;Signal;HPM_P1;HPM_P2
2022/05/29 00:02:24;;;;;;;8.10;2.90;;;;;;;;;;5072547;28;20187;-71
2022/05/29 00:04:50;;;;;;;3.17;2.85;;;;;;;;;;5072080;28;20205;-71
2022/05/29 00:07:19;;;;;;;3.40;3.10;;;18.00;95.10;;;;;;5073572;28;20225;-71
2022/05/29 00:09:47;;;;;;;2.85;2.65;;;18.00;94.90;;;;;;5070267;28;20274;-71
2022/05/29 00:12:14;;;;;;;2.92;2.63;;;18.10;96.00;;;;;;5068912;28;20240;-71
2022/05/29 00:14:41;;;;;;;5.45;3.20;;;18.10;96.00;;;;;;5068126;28;20191;-71
2022/05/29 00:17:07;;;;;;;7.40;2.90;;;18.10;96.20;;;;;;5069714;28;20186;-71
2022/05/29 00:19:33;;;;;;;3.80;3.00;;;;;;;;;;5072943;28;20184;-71
2022/05/29 00:21:59;;;;;;;3.15;2.88;;;;;;;;;;5072669;28;20317;-71
2022/05/29 00:24:25;;;;;;;3.28;3.08;;;18.10;96.40;;;;;;5071769;28;20985;-70
2022/05/29 00:26:51;;;;;;;3.15;2.88;;;;;;;;;;5074848;28;20183;-72
2022/05/29 00:29:17;;;;;;;8.80;3.65;;;;;;;;;;5068777;28;20183;-71
2022/05/29 00:31:43;;;;;;;3.17;2.97;;;;;;;;;;5070259;28;20479;-69
2022/05/29 00:34:09;;;;;;;3.63;3.22;;;;;;;;;;5068749;28;20180;-71
2022/05/29 00:36:38;;;;;;;5.38;3.00;;;17.90;96.80;;;;;;5071497;28;20183;-70
2022/05/29 00:39:04;;;;;;;5.80;3.33;;;17.90;96.70;;;;;;5067439;28;20187;-71
2022/05/29 00:41:33;;;;;;;5.82;3.15;;;17.90;96.40;;;;;;5068042;28;20876;-70
2022/05/29 00:44:13;;;;;;;7.10;3.65;;;17.90;96.60;;;;;;5068926;28;20217;-70
2022/05/29 00:46:53;;;;;;;4.68;2.83;;;17.90;96.70;;;;;;5065695;28;20185;-70
2022/05/29 00:49:22;;;;;;;4.57;3.35;;;17.90;97.80;;;;;;5066929;28;20297;-70
2022/05/29 00:52:13;;;;;;;4.72;3.53;;;17.80;97.50;;;;;;5070945;28;20581;-70
2022/05/29 00:55:00;;;;;;;3.97;3.38;;;17.80;98.50;;;;;;5069091;28;20724;-70
2022/05/29 00:57:29;;;;;;;7.97;4.10;;;17.70;98.20;;;;;;5068616;28;20182;-70
2022/05/29 00:59:59;;;;;;;8.07;3.13;;;17.60;97.90;;;;;;5073050;28;20181;-70
2022/05/29 01:02:25;;;;;;;5.65;3.63;;;;;;;;;;5065245;28;20215;-70
2022/05/29 01:04:51;;;;;;;7.68;3.45;;;;;;;;;;5068260;28;20293;-70
2022/05/29 01:07:21;;;;;;;4.43;3.42;;;17.60;98.10;;;;;;5072119;28;20183;-71
2022/05/29 01:09:48;;;;;;;5.90;3.38;;;17.50;98.00;;;;;;5071897;28;20189;-70
2022/05/29 01:12:14;;;;;;;3.25;2.95;;;;;;;;;;5070227;28;20205;-70
2022/05/29 01:14:40;;;;;;;7.28;3.70;;;;;;;;;;5067319;28;20195;-71
2022/05/29 01:17:34;;;;;;;3.28;2.80;;;17.60;98.40;;;;;;5069966;28;20186;-71
2022/05/29 01:20:08;;;;;;;4.32;3.53;;;17.40;98.30;;;;;;5068018;28;20185;-71
2022/05/29 01:22:58;;;;;;;5.38;3.40;;;17.40;98.50;;;;;;5073459;28;20187;-71
2022/05/29 01:25:33;;;;;;;4.65;2.80;;;17.40;98.50;;;;;;5066614;28;20185;-71
2022/05/29 01:27:59;;;;;;;4.35;3.17;;;;;;;;;;5072103;28;20220;-71
2022/05/29 01:30:29;;;;;;;3.40;2.92;;;17.30;98.30;;;;;;5069493;28;20244;-71
2022/05/29 01:32:57;;;;;;;6.28;2.75;;;17.30;98.40;;;;;;5069787;28;20829;-71
2022/05/29 01:35:27;;;;;;;2.35;2.22;;;17.30;98.00;;;;;;5065466;28;20187;-71
2022/05/29 01:38:02;;;;;;;3.05;2.85;;;17.30;97.70;;;;;;5066855;28;20218;-72
2022/05/29 01:40:37;;;;;;;7.75;3.00;;;17.20;97.50;;;;;;5062927;28;20718;-71
2022/05/29 01:43:08;;;;;;;4.82;2.35;;;17.30;97.60;;;;;;5067985;28;20320;-71
2022/05/29 01:45:55;;;;;;;6.13;2.55;;;17.20;97.10;;;;;;5063630;28;20677;-71
2022/05/29 01:48:37;;;;;;;9.52;2.72;;;17.20;97.00;;;;;;5065314;28;20190;-71
2022/05/29 01:51:14;;;;;;;4.38;2.40;;;17.20;96.60;;;;;;5067219;28;20286;-71
2022/05/29 01:53:44;;;;;;;4.93;2.42;;;17.10;96.60;;;;;;5067490;28;20184;-69
2022/05/29 01:56:36;;;;;;;6.78;2.60;;;17.10;96.70;;;;;;5063602;28;20536;-71
2022/05/29 01:59:28;;;;;;;7.43;3.80;;;17.10;96.90;;;;;;5063125;28;20183;-71
2022/05/29 02:02:16;;;;;;;3.35;2.60;;;17.10;96.80;;;;;;5070659;28;20614;-71
2022/05/29 02:04:47;;;;;;;5.03;2.00;;;17.10;96.80;;;;;;5062856;28;20329;-71
2022/05/29 02:10:16;;;;;;;3.20;2.53;;;17.10;96.20;;;;;;5071062;28;20218;-71
2022/05/29 02:12:54;;;;;;;3.95;2.78;;;17.10;96.00;;;;;;5067893;28;20282;-71
2022/05/29 02:15:26;;;;;;;4.47;2.63;;;17.20;96.00;;;;;;5066510;28;20875;-71
2022/05/29 02:17:57;;;;;;;5.57;2.80;;;17.20;96.20;;;;;;5063294;28;20293;-71
2022/05/29 02:20:27;;;;;;;3.83;2.65;;;17.30;96.40;;;;;;5067675;28;20203;-71
2022/05/29 02:23:03;;;;;;;4.88;2.70;;;17.30;96.20;;;;;;5071647;28;20182;-71
2022/05/29 02:25:30;;;;;;;7.05;3.30;;;17.30;96.80;;;;;;5065510;28;20187;-71
2022/05/29 02:28:10;;;;;;;7.35;3.05;;;17.30;96.60;;;;;;5069369;28;20170;-71
2022/05/29 02:31:00;;;;;;;3.88;2.88;;;17.30;96.60;;;;;;5060584;28;20554;-71
2022/05/29 02:33:36;;;;;;;2.70;2.50;;;17.30;97.10;;;;;;5068571;28;20202;-71
2022/05/29 02:36:22;;;;;;;5.65;1.60;;;17.30;97.20;;;;;;5066148;28;20190;-71
2022/05/29 02:39:11;;;;;;;5.53;2.78;;;17.30;96.60;;;;;;5067222;28;20266;-71
2022/05/29 02:42:19;;;;;;;2.40;1.95;;;17.30;96.60;;;;;;5033826;28;20784;-71
2022/05/29 02:45:04;;;;;;;4.35;2.33;;;17.20;96.70;;;;;;5030654;28;20187;-70
2022/05/29 02:47:42;;;;;;;2.85;1.88;;;17.10;96.40;;;;;;5027416;28;20202;-71
2022/05/29 02:50:13;;;;;;;6.72;2.08;;;17.10;96.50;;;;;;5033907;28;20256;-70
2022/05/29 02:52:39;;;;;;;2.85;2.03;;;17.10;96.20;;;;;;5031409;28;20254;-71
2022/05/29 02:55:05;;;;;;;4.30;2.28;;;17.00;96.10;;;;;;5032945;28;20186;-70
2022/05/29 02:57:33;;;;;;;5.78;2.25;;;;;;;;;;5031804;28;20713;-72
2022/05/29 03:00:11;;;;;;;10.38;2.28;;;17.00;96.30;;;;;;5031963;28;20196;-71
2022/05/29 03:02:57;;;;;;;5.65;2.28;;;16.90;95.70;;;;;;5031252;28;20205;-71
2022/05/29 03:05:29;;;;;;;4.78;1.98;;;16.90;96.10;;;;;;5028444;28;20245;-69
2022/05/29 03:08:09;;;;;;;7.13;2.90;;;16.90;96.00;;;;;;5033477;28;20211;-70
2022/05/29 03:10:39;;;;;;;5.65;2.25;;;16.90;96.00;;;;;;5024936;28;20199;-70
2022/05/29 03:13:51;;;;;;;4.15;2.03;;;16.90;96.20;;;;;;5031420;28;20221;-70
2022/05/29 03:16:37;;;;;;;5.13;2.20;;;16.90;95.90;;;;;;5034192;28;20191;-71
2022/05/29 03:19:03;;;;;;;5.45;2.05;;;;;;;;;;5038899;28;20187;-71
2022/05/29 03:21:50;;;;;;;3.08;1.77;;;16.90;96.40;;;;;;5050957;28;20452;-70
2022/05/29 03:24:21;;;;;;;5.15;2.38;;;16.90;96.30;;;;;;5053549;28;20261;-70
2022/05/29 03:27:02;;;;;;;2.63;1.90;;;16.90;96.50;;;;;;5053416;28;20964;-71
2022/05/29 03:29:44;;;;;;;5.20;2.85;;;16.90;96.40;;;;;;5053688;28;20187;-70
2022/05/29 03:32:11;;;;;;;7.80;2.53;;;16.80;96.50;;;;;;5030032;28;20176;-71
2022/05/29 03:34:37;;;;;;;6.07;3.10;;;;;;;;;;5048558;28;20191;-71
2022/05/29 03:37:03;;;;;;;9.95;2.90;;;16.80;97.00;;;;;;5045703;28;20221;-71
2022/05/29 03:39:28;;;;;;;9.23;3.65;;;16.90;97.00;;;;;;5049629;28;20262;-70
2022/05/29 03:41:55;;;;;;;7.57;2.97;;;16.80;96.90;;;;;;5053372;28;20244;-71
2022/05/29 03:44:23;;;;;;;5.45;2.33;;;16.80;97.20;;;;;;5055410;28;20190;-71
2022/05/29 03:46:49;;;;;;;3.45;2.25;;;16.70;97.00;;;;;;5054620;28;20190;-71
2022/05/29 03:49:17;;;;;;;5.18;1.77;;;16.70;97.20;;;;;;5070516;28;20248;-71
2022/05/29 03:51:43;;;;;;;6.53;2.88;;;16.70;96.90;;;;;;5069777;28;20251;-71
2022/05/29 03:54:11;;;;;;;3.53;2.33;;;16.70;97.00;;;;;;5064321;28;20289;-71
2022/05/29 03:56:36;;;;;;;5.00;2.75;;;16.60;96.90;;;;;;5068920;28;20236;-71
2022/05/29 03:59:03;;;;;;;6.57;2.78;;;16.60;96.70;;;;;;5067714;28;20182;-72
2022/05/29 04:01:30;;;;;;;5.60;2.72;;;16.60;97.00;;;;;;5067047;28;20217;-71
2022/05/29 04:03:56;;;;;;;3.05;1.77;;;;;;;;;;5063753;28;20238;-71
2022/05/29 04:06:23;;;;;;;1.30;1.30;;;16.60;96.60;;;;;;5074057;28;20178;-71
2022/05/29 04:14:21;;;;;;;1.60;1.50;;;16.70;97.40;;;;;;5069967;28;20990;-71
2022/05/29 04:16:47;;;;;;;5.70;2.55;;;16.70;97.20;;;;;;5064309;28;20214;-71
2022/05/29 04:19:13;;;;;;;1.63;1.52;;;16.70;97.30;;;;;;5065384;28;20191;-70
2022/05/29 04:21:39;;;;;;;5.72;2.88;;;16.70;97.20;;;;;;5069310;28;20213;-70
2022/05/29 04:24:06;;;;;;;5.57;2.65;;;16.80;97.20;;;;;;5070339;28;20206;-70
2022/05/29 04:26:33;;;;;;;6.05;2.40;;;16.80;97.50;;;;;;5071623;28;21626;-70
2022/05/29 04:29:00;;;;;;;3.72;2.67;;;16.90;97.80;;;;;;5072213;28;20205;-70
2022/05/29 04:31:27;;;;;;;5.15;2.38;;;16.90;97.40;;;;;;5066561;28;20285;-70
2022/05/29 04:33:52;;;;;;;6.97;3.45;;;17.00;97.70;;;;;;5072309;28;20178;-70
2022/05/29 04:36:18;;;;;;;4.70;2.90;;;;;;;;;;5071810;28;20182;-70
2022/05/29 04:38:44;;;;;;;8.68;2.90;;;17.20;97.80;;;;;;5066447;28;20198;-70
2022/05/29 04:41:10;;;;;;;5.13;2.65;;;17.20;97.60;;;;;;5064204;28;20617;-70
2022/05/29 04:43:36;;;;;;;12.07;3.60;;;17.30;97.80;;;;;;5073067;28;20254;-70
2022/05/29 04:46:03;;;;;;;4.25;2.72;;;17.30;97.20;;;;;;5066160;28;20186;-71
2022/05/29 04:48:29;;;;;;;3.60;2.42;;;17.40;97.10;;;;;;5075075;28;20179;-71
2022/05/29 04:50:59;;;;;;;8.85;3.30;;;17.40;96.90;;;;;;5070324;28;20198;-71
2022/05/29 04:53:27;;;;;;;3.60;2.70;;;17.50;96.90;;;;;;5077257;28;20225;-70
2022/05/29 04:55:55;;;;;;;4.50;2.30;;;17.70;96.70;;;;;;5066567;28;20201;-70
2022/05/29 04:58:22;;;;;;;1.55;1.30;;;17.70;96.60;;;;;;5063860;28;20298;-71
2022/05/29 05:00:48;;;;;;;1.73;1.63;;;17.90;96.30;;;;;;5067849;28;21000;-72
2022/05/29 05:03:15;;;;;;;1.85;1.30;;;18.00;96.10;;;;;;5054477;28;20707;-72
2022/05/29 05:05:42;;;;;;;5.88;1.98;;;18.10;95.80;;;;;;5066195;28;20269;-71
2022/05/29 05:08:08;;;;;;;1.30;1.20;;;18.20;95.60;;;;;;5072178;28;20182;-70
2022/05/29 05:10:34;;;;;;;1.10;1.10;;;;;;;;;;5075459;28;20583;-70
2022/05/29 05:12:59;;;;;;;2.78;1.20;;;18.40;95.50;;;;;;5072293;28;20187;-70
2022/05/29 05:15:25;;;;;;;0.88;0.88;;;;;;;;;;5069461;28;20714;-70
2022/05/29 05:17:51;;;;;;;1.60;1.30;;;18.60;95.40;;;;;;5069509;28;20179;-70
2022/05/29 05:20:17;;;;;;;3.47;1.10;;;;;;;;;;5068386;28;20236;-70
2022/05/29 05:22:43;;;;;;;5.57;1.40;;;18.70;93.80;;;;;;5066053;28;20186;-70
2022/05/29 05:25:13;;;;;;;3.88;1.42;;;18.60;93.20;;;;;;5067879;28;20187;-69
2022/05/29 05:27:40;;;;;;;0.95;0.95;;;;;;;;;;5089112;28;20183;-69
2022/05/29 05:30:06;;;;;;;1.58;0.82;;;18.70;92.60;;;;;;5072734;28;20189;-70
2022/05/29 05:32:32;;;;;;;1.17;1.05;;;18.70;92.80;;;;;;5067608;28;20190;-70
2022/05/29 05:35:02;;;;;;;1.35;1.25;;;18.70;92.80;;;;;;5052006;28;20668;-70
2022/05/29 05:37:28;;;;;;;0.80;0.80;;;18.70;92.90;;;;;;5071590;28;20256;-71
2022/05/29 05:39:54;;;;;;;1.50;1.40;;;;;;;;;;5067012;28;20215;-70
2022/05/29 05:42:20;;;;;;;1.25;1.15;;;18.80;92.30;;;;;;5067175;28;20222;-70
2022/05/29 05:44:48;;;;;;;3.75;1.20;;;;;;;;;;5066125;28;20194;-71
2022/05/29 05:47:13;;;;;;;2.38;1.10;;;18.90;92.00;;;;;;5058863;28;20197;-72
2022/05/29 05:49:39;;;;;;;1.30;1.20;;;19.00;92.50;;;;;;5070286;28;20174;-72
2022/05/29 05:52:05;;;;;;;1.20;1.10;;;19.00;92.90;;;;;;5065839;28;20857;-72
2022/05/29 05:54:34;;;;;;;1.17;1.10;;;19.10;92.30;;;;;;5062444;28;20270;-72
2022/05/29 05:57:00;;;;;;;1.92;1.02;;;19.20;92.60;;;;;;5056457;28;20256;-72
2022/05/29 05:59:26;;;;;;;2.58;1.40;;;;;;;;;;5069580;28;20569;-71
2022/05/29 06:01:53;;;;;;;3.80;1.08;;;;;;;;;;5062611;28;20295;-75
2022/05/29 06:04:18;;;;;;;2.67;1.13;;;19.30;92.20;;;;;;5070610;28;20175;-73
2022/05/29 06:06:45;;;;;;;2.70;1.08;;;;;;;;;;5065945;28;20186;-73
2022/05/29 06:09:10;;;;;;;1.00;0.70;;;19.30;91.70;;;;;;5072394;28;20748;-73
2022/05/29 06:11:39;;;;;;;3.50;1.70;;;;;;;;;;5073935;28;20282;-73
2022/05/29 06:14:05;;;;;;;1.23;1.17;;;19.30;91.70;;;;;;5055285;28;20644;-74
2022/05/29 06:16:31;;;;;;;1.13;1.02;;;;;;;;;;5067514;28;20187;-69
2022/05/29 06:18:57;;;;;;;3.80;1.42;;;19.40;92.40;;;;;;5067971;28;20225;-71
2022/05/29 06:21:23;;;;;;;17.67;1.65;;;19.50;92.60;;;;;;5064267;28;20305;-71
2022/05/29 06:23:49;;;;;;;2.05;1.27;;;19.60;92.30;;;;;;5072675;28;20186;-71
2022/05/29 06:26:14;;;;;;;1.27;1.15;;;19.60;92.30;;;;;;5069631;28;20180;-71
2022/05/29 06:28:41;;;;;;;1.92;1.52;;;19.60;91.70;;;;;;5066722;28;20719;-71
2022/05/29 06:31:10;;;;;;;6.47;1.40;;;19.60;91.40;;;;;;5063540;28;20210;-71
2022/05/29 06:33:37;;;;;;;3.78;1.15;;;19.70;91.10;;;;;;5053839;28;20232;-71
2022/05/29 06:36:06;;;;;;;1.00;0.90;;;19.70;91.00;;;;;;5057755;28;21069;-72
2022/05/29 06:38:32;;;;;;;3.03;0.90;;;;;;;;;;5067627;28;20183;-71
2022/05/29 06:40:59;;;;;;;2.58;1.42;;;19.80;90.40;;;;;;5072075;28;20344;-73
2022/05/29 06:43:25;;;;;;;0.73;0.73;;;19.80;89.10;;;;;;5071092;28;20262;-73
2022/05/29 06:45:57;;;;;;;2.42;0.93;;;19.80;87.80;;;;;;5068364;28;20709;-68
2022/05/29 06:48:22;;;;;;;1.27;1.15;;;19.90;89.10;;;;;;5066104;28;20558;-69
2022/05/29 06:50:48;;;;;;;0.63;0.63;;;;;;;;;;5068951;28;20182;-71
2022/05/29 06:53:14;;;;;;;1.00;0.90;;;20.00;87.20;;;;;;5070997;28;20193;-73
2022/05/29 06:55:40;;;;;;;1.80;0.82;;;20.10;87.30;;;;;;5066011;28;20675;-72
2022/05/29 06:58:06;;;;;;;1.85;0.82;;;;;;;;;;5064496;28;20576;-75
2022/05/29 07:08:49;;;;;;;2.10;1.02;;;;;;;;;;5061275;28;20901;-73
2022/05/29 07:11:19;;;;;;;0.90;0.90;;;20.40;83.70;;;;;;5063761;28;20190;-73
2022/05/29 07:13:45;;;;;;;2.25;0.85;;;20.40;84.00;;;;;;5064375;28;20190;-71
2022/05/29 07:16:11;;;;;;;1.80;0.82;;;20.50;84.30;;;;;;5059975;28;20190;-71
2022/05/29 07:18:37;;;;;;;9.48;1.20;;;;;;;;;;5065177;28;20543;-72
2022/05/29 07:21:04;;;;;;;2.97;1.30;;;20.60;85.10;;;;;;5064364;28;20218;-72
2022/05/29 07:23:30;;;;;;;2.20;1.13;;;20.60;83.90;;;;;;5063421;28;20652;-71
2022/05/29 07:25:57;;;;;;;1.50;1.10;;;20.70;83.70;;;;;;5063762;28;20186;-70
2022/05/29 07:28:23;;;;;;;1.30;1.02;;;20.80;84.40;;;;;;5062897;28;20183;-72
2022/05/29 07:30:50;;;;;;;2.25;0.68;;;20.90;84.80;;;;;;5066427;28;20182;-75
2022/05/29 07:33:16;;;;;;;3.22;1.17;;;20.90;84.20;;;;;;5064582;28;20190;-73
2022/05/29 07:35:42;;;;;;;2.25;1.00;;;;;;;;;;5059717;28;20647;-74
2022/05/29 07:38:09;;;;;;;2.72;0.60;;;21.00;85.00;;;;;;5063497;28;20207;-75
2022/05/29 07:40:34;;;;;;;2.50;0.90;;;21.00;83.40;;;;;;5063369;28;20208;-73
2022/05/29 07:43:19;;;;;;;2.05;0.60;;;;;;;;;;5063195;28;20217;-73
2022/05/29 07:46:05;;;;;;;5.60;0.80;;;21.10;83.10;;;;;;5073026;28;20189;-73
2022/05/29 07:48:32;;;;;;;0.68;0.60;;;;;;;;;;5072364;28;20199;-74
2022/05/29 07:50:58;;;;;;;0.75;0.75;;;;;;;;;;5069468;28;20178;-74
2022/05/29 07:53:24;;;;;;;1.45;0.88;;;21.30;82.80;;;;;;5067108;28;20650;-74
2022/05/29 07:55:50;;;;;;;0.63;0.63;;;21.40;81.90;;;;;;5067677;28;20189;-72
2022/05/29 07:58:17;;;;;;;1.80;0.80;;;;;;;;;;5066769;28;20880;-74
2022/05/29 08:00:43;;;;;;;1.85;0.70;;;21.50;82.00;;;;;;5065044;28;20667;-74
2022/05/29 08:03:10;;;;;;;2.05;0.77;;;21.50;81.30;;;;;;5064593;28;20241;-74
2022/05/29 08:05:37;;;;;;;3.45;0.90;;;21.60;81.50;;;;;;5056105;28;20183;-74
2022/05/29 08:08:05;;;;;;;2.53;0.95;;;21.70;82.70;;;;;;5070318;28;20246;-74
2022/05/29 08:10:33;;;;;;;2.90;0.77;;;21.80;82.00;;;;;;5073691;28;20187;-74
2022/05/29 08:12:59;;;;;;;2.75;0.90;;;21.80;82.30;;;;;;5069395;28;20769;-72
2022/05/29 08:15:25;;;;;;;0.77;0.77;;;21.90;81.90;;;;;;5067553;28;20198;-74
2022/05/29 08:17:52;;;;;;;1.52;0.80;;;22.00;80.70;;;;;;5067278;28;20638;-72
2022/05/29 08:20:20;;;;;;;0.57;0.57;;;22.00;80.30;;;;;;5072740;28;20239;-74
2022/05/29 08:22:46;;;;;;;1.50;0.80;;;;;;;;;;5071619;28;20490;-72
2022/05/29 08:30:46;;;;;;;0.70;0.60;;;22.30;78.70;;;;;;5068296;28;20200;-73
2022/05/29 08:33:15;;;;;;;1.10;0.80;;;22.40;79.30;;;;;;5059675;28;20194;-72
2022/05/29 08:35:43;;;;;;;2.10;0.80;;;22.50;77.90;;;;;;5074649;28;20187;-72
2022/05/29 08:38:11;;;;;;;1.45;0.55;;;22.50;78.10;;;;;;5068716;28;20183;-74
2022/05/29 08:40:56;;;;;;;3.97;1.05;;;22.60;77.10;;;;;;5069265;28;20323;-74
2022/05/29 08:43:43;;;;;;;1.90;1.17;;;22.70;77.30;;;;;;5074313;28;20277;-74
2022/05/29 08:46:18;;;;;;;1.55;0.60;;;22.70;76.40;;;;;;5065059;28;20180;-72
2022/05/29 08:48:45;;;;;;;4.50;1.10;;;22.80;77.30;;;;;;5071699;28;20268;-73
2022/05/29 08:51:23;;;;;;;3.97;1.05;;;23.00;77.80;;;;;;5065057;28;20179;-72
2022/05/29 08:54:11;;;;;;;4.75;0.70;;;23.10;77.90;;;;;;5068341;28;20194;-73
2022/05/29 08:57:13;;;;;;;5.15;1.20;;;23.30;77.50;;;;;;5067840;28;20649;-73
2022/05/29 08:59:50;;;;;;;2.80;1.00;;;23.50;75.70;;;;;;5067018;28;20675;-73
2022/05/29 09:02:30;;;;;;;1.13;1.00;;;23.50;72.50;;;;;;5067011;28;20912;-72
2022/05/29 09:05:06;;;;;;;7.10;0.80;;;23.60;72.30;;;;;;5068597;28;20256;-74
2022/05/29 09:07:34;;;;;;;1.40;1.00;;;23.70;73.90;;;;;;5068213;28;20213;-74
2022/05/29 09:10:10;;;;;;;2.78;1.05;;;23.80;73.80;;;;;;5068507;28;20194;-74
2022/05/29 09:13:04;;;;;;;0.95;0.90;;;23.90;73.00;;;;;;5067301;28;20217;-74
2022/05/29 09:15:48;;;;;;;6.18;1.10;;;24.00;72.80;;;;;;5064635;28;20301;-74
2022/05/29 09:18:25;;;;;;;0.85;0.70;;;24.00;71.00;;;;;;5067307;28;20205;-72
2022/05/29 09:21:15;;;;;;;1.92;0.98;;;24.10;73.00;;;;;;5069644;28;20210;-73
2022/05/29 09:24:01;;;;;;;1.08;0.80;;;24.20;72.80;;;;;;5070198;28;20604;-72
2022/05/29 09:26:32;;;;;;;1.75;0.70;;;24.30;71.10;;;;;;5089487;28;20187;-72
2022/05/29 09:28:58;;;;;;;1.08;0.77;;;24.40;71.50;;;;;;5071071;28;20261;-72
2022/05/29 09:31:25;;;;;;;3.42;1.10;;;24.50;72.70;;;;;;5074764;28;20187;-72
2022/05/29 09:33:52;;;;;;;1.20;0.85;;;24.50;71.50;;;;;;5069133;28;20190;-73
2022/05/29 09:37:00;;;;;;;2.47;1.10;;;24.60;71.90;;;;;;5067948;28;20674;-72
2022/05/29 09:39:35;;;;;;;3.25;0.93;;;24.60;72.20;;;;;;5070386;28;20193;-73
2022/05/29 09:42:17;;;;;;;4.20;0.98;;;24.70;72.30;;;;;;5065483;28;20290;-73
2022/05/29 09:45:22;;;;;;;2.65;1.02;;;24.80;72.10;;;;;;5064804;28;20205;-73
2022/05/29 09:50:58;;;;;;;1.95;1.48;;;25.20;70.60;;;;;;5064688;28;20578;-73
2022/05/29 09:53:32;;;;;;;3.92;1.35;;;25.30;70.40;;;;;;5060024;28;20195;-73
2022/05/29 09:56:04;;;;;;;1.77;0.93;;;25.30;69.90;;;;;;5050358;28;20187;-73
2022/05/29 09:58:36;;;;;;;0.88;0.82;;;25.30;71.40;;;;;;5060544;28;20217;-73
2022/05/29 10:01:06;;;;;;;1.63;0.88;;;25.50;70.30;;;;;;5065358;28;20213;-73
2022/05/29 10:03:43;;;;;;;3.83;1.27;;;25.50;69.20;;;;;;5066090;28;20218;-73
2022/05/29 10:06:14;;;;;;;4.93;0.93;;;25.60;69.40;;;;;;5065611;28;20549;-73
2022/05/29 10:08:40;;;;;;;1.13;1.02;;;25.70;70.30;;;;;;5067101;28;20198;-73
2022/05/29 10:11:32;;;;;;;1.10;1.10;;;25.90;69.10;;;;;;5068388;28;20197;-73
2022/05/29 10:14:02;;;;;;;3.80;0.90;;;26.10;69.30;;;;;;5065737;28;20211;-71
2022/05/29 10:16:37;;;;;;;6.00;1.65;;;26.20;67.10;;;;;;5057675;28;20566;-72
2022/05/29 10:19:08;;;;;;;1.10;1.00;;;26.30;66.90;;;;;;5060400;28;20209;-73
2022/05/29 10:21:46;;;;;;;4.13;1.20;;;26.50;68.20;;;;;;5060853;28;20306;-74
2022/05/29 10:24:12;;;;;;;1.27;1.13;;;;;;;;;;5064946;28;20183;-75
2022/05/29 10:26:38;;;;;;;1.15;1.15;;;26.80;66.10;;;;;;5070246;28;20183;-74
2022/05/29 10:29:35;;;;;;;1.40;1.30;;;26.80;65.80;;;;;;5067367;28;20182;-75
2022/05/29 10:32:08;;;;;;;3.15;0.98;;;26.90;66.40;;;;;;5070383;28;20199;-75
2022/05/29 10:34:40;;;;;;;3.42;1.05;;;27.10;66.30;;;;;;5072382;28;20190;-74
2022/05/29 10:37:24;;;;;;;0.88;0.88;;;27.30;66.00;;;;;;5063997;28;20183;-74
2022/05/29 10:39:50;;;;;;;1.73;1.13;;;;;;;;;;5068342;28;20187;-76
2022/05/29 10:42:40;;;;;;;2.47;1.17;;;28.00;64.80;;;;;;5064563;28;20309;-75
2022/05/29 10:45:08;;;;;;;3.72;1.42;;;28.20;64.40;;;;;;5066710;28;20187;-74
2022/05/29 10:47:46;;;;;;;1.42;1.33;;;28.50;63.70;;;;;;5065886;28;20570;-74
2022/05/29 10:50:23;;;;;;;0.82;0.82;;;28.70;64.90;;;;;;5071504;28;20193;-73
2022/05/29 10:52:49;;;;;;;3.13;1.45;;;;;;;;;;5068247;28;20257;-74
2022/05/29 10:55:30;;;;;;;2.92;1.67;;;29.20;64.50;;;;;;5062195;28;20201;-73
2022/05/29 10:58:07;;;;;;;4.18;1.60;;;29.50;64.30;;;;;;5069769;28;20173;-74
2022/05/29 11:01:00;;;;;;;4.20;1.70;;;29.70;63.10;;;;;;5069244;28;20238;-74
2022/05/29 11:03:47;;;;;;;2.00;1.25;;;29.90;62.80;;;;;;5070296;28;20194;-74
2022/05/29 11:06:44;;;;;;;5.38;1.73;;;29.90;61.50;;;;;;5072461;28;20718;-73
2022/05/29 11:09:51;;;;;;;4.55;1.27;;;29.90;61.80;;;;;;5070150;28;20310;-73
2022/05/29 11:12:28;;;;;;;1.13;1.13;;;29.70;62.60;;;;;;5071413;28;20187;-73
2022/05/29 11:15:02;;;;;;;1.17;1.17;;;29.90;62.20;;;;;;5067602;28;20195;-73
2022/05/29 11:17:47;;;;;;;2.88;1.25;;;30.10;61.60;;;;;;5070168;28;20194;-73
2022/05/29 11:20:28;;;;;;;1.88;1.05;;;30.10;62.30;;;;;;5067788;28;20194;-74
2022/05/29 11:23:17;;;;;;;3.55;1.92;;;30.20;62.20;;;;;;5067753;28;20614;-74
2022/05/29 11:25:43;;;;;;;2.38;1.50;;;;;;;;;;5070260;28;20195;-73
2022/05/29 11:28:09;;;;;;;2.33;1.67;;;;;;;;;;5062585;28;20182;-73
2022/05/29 11:30:50;;;;;;;1.58;1.48;;;30.20;62.30;;;;;;5063805;28;20188;-73
2022/05/29 11:33:30;;;;;;;2.83;1.30;;;30.30;61.10;;;;;;5058965;28;20758;-73
2022/05/29 11:36:14;;;;;;;4.18;1.30;;;30.30;60.90;;;;;;5061364;28;20510;-74
2022/05/29 11:39:28;;;;;;;1.27;1.17;;;30.30;61.30;;;;;;5067401;28;20584;-74
2022/05/29 11:41:55;;;;;;;2.35;1.75;;;;;;;;;;5021006;28;20231;-74
2022/05/29 11:44:43;;;;;;;6.43;1.65;;;30.10;60.90;;;;;;5021433;28;20192;-74
2022/05/29 11:53:20;;;;;;;2.65;1.40;;;29.60;61.40;;;;;;5026348;28;20218;-74
2022/05/29 11:55:48;;;;;;;2.72;1.40;;;29.60;62.40;;;;;;5023380;28;20195;-74
2022/05/29 11:58:20;;;;;;;3.13;1.60;;;29.50;62.70;;;;;;5023255;28;20343;-74
2022/05/29 12:00:46;;;;;;;2.08;1.80;;;;;;;;;;5026405;28;20227;-74
2022/05/29 12:03:21;;;;;;;4.38;1.67;;;29.50;63.30;;;;;;5026468;28;20188;-74
2022/05/29 12:06:06;;;;;;;2.22;2.05;;;29.70;62.60;;;;;;5020644;28;20306;-74
2022/05/29 12:08:50;;;;;;;3.70;1.98;;;29.70;63.50;;;;;;5023835;28;20486;-74
2022/05/29 12:11:31;;;;;;;2.97;2.10;;;30.00;62.70;;;;;;5020376;28;20206;-73
2022/05/29 12:14:32;;;;;;;3.28;1.70;;;30.10;62.10;;;;;;5022282;28;20195;-73
2022/05/29 12:17:05;;;;;;;3.75;1.88;;;30.10;62.30;;;;;;4955696;28;20194;-74
2022/05/29 12:20:38;;;;;;;9.38;2.47;;;30.10;62.40;;;;;;5002370;28;20236;-73
2022/05/29 12:23:24;;;;;;;5.97;2.72;;;30.10;61.90;;;;;;4878362;29;20729;-73
2022/05/29 12:25:57;;;;;;;2.63;2.53;;;30.00;62.50;;;;;;4879159;29;20201;-73
2022/05/29 12:28:52;;;;;;;2.45;2.35;;;30.30;63.30;;;;;;4865280;29;20483;-73
2022/05/29 12:31:49;;;;;;;4.60;2.92;;;30.60;61.90;;;;;;4881512;29;20204;-74
2022/05/29 12:34:20;;;;;;;10.20;3.17;;;30.60;62.00;;;;;;4881987;29;20634;-73
2022/05/29 12:37:02;;;;;;;3.70;3.50;;;30.70;61.90;;;;;;4884308;29;21031;-74
2022/05/29 12:39:56;;;;;;;5.18;3.97;;;30.60;61.30;;;;;;4882196;29;20352;-73
2022/05/29 12:43:06;;;;;;;4.65;3.63;;;30.50;61.80;;;;;;4882132;29;20723;-73
2022/05/29 12:45:56;;;;;;;3.42;3.42;;;30.30;62.40;;;;;;4859653;29;20243;-73
2022/05/29 12:48:23;;;;;;;6.68;3.97;;;;;;;;;;4859975;29;20203;-73
2022/05/29 12:51:08;;;;;;;7.07;4.03;;;30.70;62.70;;;;;;4859863;29;20676;-74
2022/05/29 12:54:02;;;;;;;4.45;4.18;;;30.90;61.60;;;;;;4871101;29;20252;-73
2022/05/29 12:57:07;;;;;;;11.85;4.20;;;31.10;61.60;;;;;;4888238;29;20204;-74
2022/05/29 12:59:44;;;;;;;5.22;4.05;;;31.20;61.20;;;;;;4968260;28;20204;-73
2022/05/29 13:02:34;;;;;;;6.28;4.15;;;31.20;62.30;;;;;;4989560;28;20858;-75
2022/05/29 13:05:24;;;;;;;7.68;5.15;;;31.40;62.10;;;;;;4975783;28;20225;-74
2022/05/29 13:07:55;;;;;;;5.05;4.50;;;31.30;61.20;;;;;;4970842;28;20224;-75
2022/05/29 13:10:31;;;;;;;5.75;4.00;;;31.20;61.80;;;;;;4972369;28;20182;-74
2022/05/29 13:13:13;;;;;;;6.18;4.50;;;31.10;60.40;;;;;;4958641;28;20182;-75
2022/05/29 13:15:41;;;;;;;9.68;4.35;;;30.70;61.30;;;;;;4967047;28;20661;-74
2022/05/29 13:18:15;;;;;;;4.65;4.25;;;30.40;62.70;;;;;;4969069;28;20188;-75
2022/05/29 13:21:05;;;;;;;4.95;4.60;;;30.00;62.90;;;;;;4986251;28;20218;-74
2022/05/29 13:23:34;;;;;;;10.45;5.05;;;29.70;64.20;;;;;;5064864;28;20175;-74
2022/05/29 13:26:00;;;;;;;4.88;4.35;;;;;;;;;;5068438;28;20186;-74
2022/05/29 13:28:31;;;;;;;4.90;4.60;;;29.20;64.80;;;;;;5067464;28;20179;-74
2022/05/29 13:31:15;;;;;;;5.28;4.57;;;29.00;64.70;;;;;;5063427;28;20289;-74
2022/05/29 13:33:57;;;;;;;4.72;4.32;;;28.80;65.70;;;;;;5066114;28;20191;-74
2022/05/29 13:36:44;;;;;;;8.27;4.32;;;28.70;65.80;;;;;;5088819;28;20196;-74
2022/05/29 13:39:30;;;;;;;4.07;3.67;;;28.70;66.20;;;;;;5067563;28;20306;-74
2022/05/29 13:42:11;;;;;;;4.35;3.97;;;28.60;66.30;;;;;;5069734;28;20214;-74
2022/05/29 13:44:42;;;;;;;3.85;3.70;;;28.50;66.40;;;;;;5059129;28;20175;-74
2022/05/29 13:47:23;;;;;;;4.65;4.10;;;28.20;66.70;;;;;;5064160;28;20187;-74
2022/05/29 13:50:05;;;;;;;6.18;3.90;;;27.80;67.30;;;;;;5054460;28;20187;-74
2022/05/29 13:52:31;;;;;;;4.43;4.03;;;;;;;;;;5065625;28;20195;-73
2022/05/29 13:55:18;;;;;;;4.72;4.32;;;27.60;67.90;;;;;;5066439;28;20180;-75
2022/05/29 14:06:35;;;;;;;4.20;3.40;;;26.90;68.30;;;;;;5070266;28;20937;-74
2022/05/29 14:09:06;;;;;;;4.40;4.05;;;26.80;69.00;;;;;;5068726;28;20186;-75
2022/05/29 14:11:53;;;;;;;3.70;3.53;;;26.70;69.50;;;;;;5067024;28;20240;-75
2022/05/29 14:14:30;;;;;;;10.93;4.22;;;26.50;69.10;;;;;;5070147;28;20765;-76
2022/05/29 14:17:00;;;;;;;8.10;3.35;;;26.50;69.70;;;;;;5066447;28;20187;-75
2022/05/29 14:20:04;;;;;;;3.58;3.38;;;26.40;69.80;;;;;;5086620;28;20598;-75